createdAt,value
2018-09-20T00:00:30.876Z,10.90
2018-09-20T00:01:04.279Z,9.70
2018-09-20T00:01:37.683Z,8.87
2018-09-20T00:02:11.048Z,9.13
2018-09-20T00:02:44.398Z,10.65
2018-09-20T00:03:17.835Z,9.60
2018-09-20T00:03:51.238Z,9.73
2018-09-20T00:04:24.613Z,9.88
2018-09-20T00:04:57.934Z,9.43
2018-09-20T00:05:31.339Z,9.13
2018-09-20T00:06:04.708Z,9.37
2018-09-20T00:06:38.253Z,9.67
2018-09-20T00:07:11.625Z,8.20
2018-09-20T00:07:45.037Z,9.40
2018-09-20T00:08:18.367Z,9.10
2018-09-20T00:08:51.719Z,9.78
2018-09-20T00:09:25.051Z,9.18
2018-09-20T00:09:58.533Z,9.40
2018-09-20T00:10:31.896Z,9.78
2018-09-20T00:11:05.255Z,9.10
2018-09-20T00:11:38.648Z,8.90
2018-09-20T00:12:11.912Z,9.23
2018-09-20T00:12:45.317Z,8.57
2018-09-20T00:13:18.832Z,8.93
2018-09-20T00:13:52.263Z,9.50
2018-09-20T00:14:25.581Z,8.93
2018-09-20T00:14:58.920Z,9.28
2018-09-20T00:15:32.464Z,9.67
2018-09-20T00:16:05.812Z,8.30
2018-09-20T00:16:39.192Z,8.93
2018-09-20T00:17:12.533Z,8.60
2018-09-20T00:17:45.961Z,8.03
2018-09-20T00:18:19.452Z,8.73
2018-09-20T00:18:52.857Z,8.48
2018-09-20T00:19:26.219Z,8.87
2018-09-20T00:19:59.573Z,8.80
2018-09-20T00:20:32.911Z,9.13
2018-09-20T00:21:06.303Z,8.98
2018-09-20T00:21:39.715Z,9.37
2018-09-20T00:22:13.199Z,8.30
2018-09-20T00:22:46.643Z,8.40
2018-09-20T00:23:20.180Z,8.03
2018-09-20T00:23:53.572Z,7.83
2018-09-20T00:24:26.894Z,8.28
2018-09-20T00:25:00.240Z,8.43
2018-09-20T00:25:33.632Z,7.50
2018-09-20T00:26:07.190Z,7.78
2018-09-20T00:26:40.637Z,8.00
2018-09-20T00:27:14.075Z,7.45
2018-09-20T00:27:47.706Z,8.00
2018-09-20T00:28:21.049Z,7.83
2018-09-20T00:28:54.359Z,7.35
2018-09-20T00:29:27.690Z,8.17
2018-09-20T00:30:01.337Z,7.73
2018-09-20T00:30:34.945Z,7.70
2018-09-20T00:31:08.528Z,7.30
2018-09-20T00:31:41.868Z,7.53
2018-09-20T00:32:15.182Z,7.40
2018-09-20T00:32:48.536Z,7.20
2018-09-20T00:33:22.089Z,7.55
2018-09-20T00:33:55.427Z,7.13
2018-09-20T00:34:28.787Z,7.42
2018-09-20T00:35:02.279Z,7.23
2018-09-20T00:35:35.724Z,6.37
2018-09-20T00:36:09.256Z,6.70
2018-09-20T00:36:42.568Z,7.13
2018-09-20T00:37:15.934Z,6.70
2018-09-20T00:37:49.257Z,6.90
2018-09-20T00:38:22.610Z,7.30
2018-09-20T00:38:55.979Z,6.40
2018-09-20T00:39:29.303Z,6.80
2018-09-20T00:40:02.616Z,6.93
2018-09-20T00:40:35.939Z,7.20
2018-09-20T00:41:09.296Z,6.60
2018-09-20T00:41:42.844Z,6.87
2018-09-20T00:42:16.216Z,6.47
2018-09-20T00:42:49.638Z,6.93
2018-09-20T00:43:22.983Z,6.47
2018-09-20T00:43:56.533Z,6.27
2018-09-20T00:44:29.822Z,6.70
2018-09-20T00:45:03.234Z,7.13
2018-09-20T00:45:36.621Z,6.60
2018-09-20T00:46:10.106Z,6.22
2018-09-20T00:46:43.406Z,6.20
2018-09-20T00:47:16.731Z,7.03
2018-09-20T00:47:50.101Z,6.43
2018-09-20T00:48:23.474Z,6.65
2018-09-20T00:48:56.805Z,6.47
2018-09-20T00:49:30.225Z,6.20
2018-09-20T00:50:03.678Z,6.23
2018-09-20T00:50:37.418Z,6.07
2018-09-20T00:51:10.793Z,6.63
2018-09-20T00:51:44.301Z,6.47
2018-09-20T00:52:17.801Z,6.30
2018-09-20T00:52:51.233Z,6.00
2018-09-20T00:53:24.899Z,6.27
2018-09-20T00:53:58.536Z,6.07
2018-09-20T00:54:31.864Z,5.77
2018-09-20T00:55:05.324Z,5.97
2018-09-20T00:55:38.733Z,6.40
2018-09-20T00:56:12.073Z,6.40
2018-09-20T00:56:45.454Z,5.95
2018-09-20T00:57:18.809Z,6.23
2018-09-20T00:57:52.148Z,6.33
2018-09-20T00:58:25.528Z,5.83
2018-09-20T00:58:58.954Z,6.00
2018-09-20T00:59:32.293Z,6.20
2018-09-20T01:00:05.819Z,6.20
2018-09-20T01:00:39.207Z,5.87
2018-09-20T01:01:12.840Z,5.95
2018-09-20T01:01:46.298Z,5.53
2018-09-20T01:02:19.642Z,6.60
2018-09-20T01:02:52.967Z,6.57
2018-09-20T01:03:26.311Z,5.40
2018-09-20T01:03:59.759Z,5.85
2018-09-20T01:04:33.384Z,5.83
2018-09-20T01:05:07.172Z,6.43
2018-09-20T01:05:40.680Z,5.70
2018-09-20T01:06:14.161Z,6.35
2018-09-20T01:06:47.598Z,5.33
2018-09-20T01:07:20.935Z,6.13
2018-09-20T01:07:54.290Z,5.70
2018-09-20T01:08:27.573Z,6.25
2018-09-20T01:09:00.926Z,5.70
2018-09-20T01:09:34.278Z,5.77
2018-09-20T01:10:07.641Z,5.42
2018-09-20T01:10:41.014Z,5.85
2018-09-20T01:11:14.522Z,6.00
2018-09-20T01:11:47.872Z,6.00
2018-09-20T01:12:21.305Z,5.90
2018-09-20T01:12:54.951Z,5.97
2018-09-20T01:13:28.470Z,5.90
2018-09-20T01:14:01.906Z,5.27
2018-09-20T01:14:35.350Z,5.57
2018-09-20T01:15:08.849Z,5.73
2018-09-20T01:15:42.308Z,5.53
2018-09-20T01:16:15.736Z,5.27
2018-09-20T01:16:49.120Z,5.53
2018-09-20T01:17:22.502Z,5.43
2018-09-20T01:17:55.899Z,5.72
2018-09-20T01:18:29.239Z,5.20
2018-09-20T01:19:02.656Z,5.67
2018-09-20T01:19:36.069Z,6.10
2018-09-20T01:20:09.516Z,5.70
2018-09-20T01:20:42.868Z,5.57
2018-09-20T01:21:16.384Z,5.08
2018-09-20T01:21:50.084Z,4.90
2018-09-20T01:22:23.463Z,4.92
2018-09-20T01:22:56.866Z,5.50
2018-09-20T01:23:30.474Z,6.07
2018-09-20T01:24:04.090Z,5.63
2018-09-20T01:24:37.450Z,5.33
2018-09-20T01:25:10.968Z,4.93
2018-09-20T01:25:44.309Z,5.07
2018-09-20T01:26:17.702Z,4.60
2018-09-20T01:26:51.201Z,5.10
2018-09-20T01:27:24.492Z,5.10
2018-09-20T01:27:57.997Z,4.70
2018-09-20T01:28:31.353Z,5.27
2018-09-20T01:29:04.837Z,4.97
2018-09-20T01:29:38.293Z,5.00
2018-09-20T01:30:18.351Z,5.77
2018-09-20T01:30:52.124Z,4.83
2018-09-20T01:31:25.563Z,4.57
2018-09-20T01:31:58.892Z,4.80
2018-09-20T01:32:32.308Z,5.03
2018-09-20T01:33:06.312Z,5.37
2018-09-20T01:33:39.675Z,5.27
2018-09-20T01:34:13.176Z,5.30
2018-09-20T01:34:46.546Z,5.55
2018-09-20T01:35:19.908Z,5.53
2018-09-20T01:35:53.290Z,5.33
2018-09-20T01:36:26.645Z,5.37
2018-09-20T01:36:59.952Z,4.83
2018-09-20T01:37:33.448Z,5.20
2018-09-20T01:38:06.852Z,4.83
2018-09-20T01:38:40.325Z,5.13
2018-09-20T01:39:15.310Z,5.23
2018-09-20T01:39:48.679Z,5.07
2018-09-20T01:40:22.143Z,5.20
2018-09-20T01:40:56.006Z,5.43
2018-09-20T01:41:29.467Z,4.93
2018-09-20T01:42:02.791Z,4.72
2018-09-20T01:42:36.140Z,4.80
2018-09-20T01:43:09.857Z,5.23
2018-09-20T01:43:43.436Z,5.60
2018-09-20T01:44:16.924Z,5.10
2018-09-20T01:44:50.587Z,5.43
2018-09-20T01:45:24.257Z,5.50
2018-09-20T01:45:57.647Z,5.53
2018-09-20T01:46:31.069Z,5.03
2018-09-20T01:47:04.695Z,5.33
2018-09-20T01:47:38.328Z,4.95
2018-09-20T01:48:11.699Z,5.23
2018-09-20T01:48:45.116Z,4.70
2018-09-20T01:49:18.401Z,5.20
2018-09-20T01:49:51.784Z,4.65
2018-09-20T01:50:25.271Z,5.27
2018-09-20T01:50:58.737Z,5.00
2018-09-20T01:51:32.176Z,4.93
2018-09-20T01:52:05.489Z,4.90
2018-09-20T01:52:38.846Z,4.83
2018-09-20T01:53:12.330Z,4.80
2018-09-20T01:53:45.712Z,5.17
2018-09-20T01:54:19.151Z,4.87
2018-09-20T01:54:52.539Z,4.80
2018-09-20T01:55:25.867Z,4.87
2018-09-20T01:55:59.235Z,5.47
2018-09-20T01:56:32.575Z,4.93
2018-09-20T01:57:06.192Z,4.72
2018-09-20T01:57:39.675Z,4.53
2018-09-20T01:58:12.954Z,4.57
2018-09-20T01:58:46.772Z,4.85
2018-09-20T01:59:20.429Z,5.23
2018-09-20T01:59:53.797Z,4.60
2018-09-20T02:00:27.114Z,4.83
2018-09-20T02:01:00.514Z,5.03
2018-09-20T02:01:33.947Z,5.37
2018-09-20T02:02:07.315Z,5.13
2018-09-20T02:02:40.643Z,5.23
2018-09-20T02:03:14.131Z,5.27
2018-09-20T02:03:47.593Z,5.07
2018-09-20T02:04:21.147Z,4.60
2018-09-20T02:04:54.850Z,5.00
2018-09-20T02:05:28.298Z,5.30
2018-09-20T02:06:01.620Z,5.00
2018-09-20T02:06:34.996Z,4.90
2018-09-20T02:07:08.587Z,5.20
2018-09-20T02:07:41.958Z,4.80
2018-09-20T02:08:15.288Z,4.87
2018-09-20T02:08:48.678Z,5.10
2018-09-20T02:09:22.052Z,5.70
2018-09-20T02:09:55.404Z,5.17
2018-09-20T02:10:28.776Z,4.80
2018-09-20T02:11:02.056Z,5.23
2018-09-20T02:11:35.439Z,5.67
2018-09-20T02:12:08.820Z,4.90
2018-09-20T02:12:42.373Z,5.07
2018-09-20T02:13:15.692Z,5.20
2018-09-20T02:13:49.242Z,5.50
2018-09-20T02:14:22.758Z,4.83
2018-09-20T02:14:56.434Z,4.93
2018-09-20T02:15:30.253Z,5.90
2018-09-20T02:16:03.552Z,5.00
2018-09-20T02:16:36.903Z,5.53
2018-09-20T02:17:10.256Z,5.95
2018-09-20T02:17:43.753Z,5.30
2018-09-20T02:18:17.099Z,5.40
2018-09-20T02:18:50.453Z,4.90
2018-09-20T02:19:23.811Z,5.30
2018-09-20T02:19:57.221Z,5.30
2018-09-20T02:20:30.689Z,5.50
2018-09-20T02:21:04.179Z,5.43
2018-09-20T02:21:37.964Z,5.30
2018-09-20T02:22:11.353Z,5.07
2018-09-20T02:22:44.725Z,5.53
2018-09-20T02:23:18.136Z,5.67
2018-09-20T02:23:51.592Z,5.40
2018-09-20T02:24:24.949Z,5.10
2018-09-20T02:24:58.585Z,5.50
2018-09-20T02:25:32.014Z,4.97
2018-09-20T02:26:05.406Z,5.43
2018-09-20T02:26:38.927Z,5.50
2018-09-20T02:27:12.368Z,5.67
2018-09-20T02:27:45.793Z,4.77
2018-09-20T02:28:19.111Z,5.10
2018-09-20T02:28:52.456Z,5.43
2018-09-20T02:29:25.968Z,5.33
2018-09-20T02:29:59.361Z,5.53
2018-09-20T02:30:32.753Z,4.93
2018-09-20T02:31:06.321Z,5.30
2018-09-20T02:31:39.792Z,5.60
2018-09-20T02:32:13.197Z,5.90
2018-09-20T02:32:47.260Z,5.50
2018-09-20T02:33:20.782Z,5.50
2018-09-20T02:33:54.104Z,5.20
2018-09-20T02:34:27.705Z,5.67
2018-09-20T02:35:01.117Z,5.43
2018-09-20T02:35:34.494Z,5.17
2018-09-20T02:36:07.985Z,5.13
2018-09-20T02:36:41.360Z,5.50
2018-09-20T02:37:14.738Z,4.93
2018-09-20T02:37:48.039Z,4.90
2018-09-20T02:38:21.541Z,5.57
2018-09-20T02:38:55.084Z,5.50
2018-09-20T02:39:28.472Z,5.30
2018-09-20T02:40:01.868Z,5.60
2018-09-20T02:40:35.176Z,5.23
2018-09-20T02:41:09.053Z,6.00
2018-09-20T02:41:42.458Z,5.77
2018-09-20T02:42:15.847Z,5.33
2018-09-20T02:42:49.127Z,5.53
2018-09-20T02:43:22.449Z,5.77
2018-09-20T02:43:55.791Z,5.87
2018-09-20T02:44:29.114Z,5.87
2018-09-20T02:45:02.498Z,6.00
2018-09-20T02:45:35.827Z,5.27
2018-09-20T02:46:09.175Z,5.47
2018-09-20T02:46:42.630Z,5.47
2018-09-20T02:47:15.965Z,5.63
2018-09-20T02:47:49.325Z,5.80
2018-09-20T02:48:23.027Z,5.17
2018-09-20T02:48:56.436Z,5.03
2018-09-20T02:49:29.865Z,5.53
2018-09-20T02:50:03.421Z,5.50
2018-09-20T02:50:36.955Z,5.40
2018-09-20T02:51:10.336Z,5.35
2018-09-20T02:51:43.724Z,4.93
2018-09-20T02:52:17.068Z,5.00
2018-09-20T02:52:50.441Z,5.28
2018-09-20T02:53:23.760Z,5.47
2018-09-20T02:53:57.258Z,5.77
2018-09-20T02:54:30.743Z,5.13
2018-09-20T02:55:04.981Z,5.70
2018-09-20T02:55:38.287Z,5.03
2018-09-20T02:56:11.690Z,5.70
2018-09-20T02:56:45.195Z,5.40
2018-09-20T02:57:18.509Z,5.30
2018-09-20T02:57:51.957Z,5.47
2018-09-20T02:58:25.338Z,5.27
2018-09-20T02:58:58.780Z,5.33
2018-09-20T02:59:32.093Z,5.57
2018-09-20T03:00:05.549Z,5.00
2018-09-20T03:00:38.869Z,5.30
2018-09-20T03:01:12.344Z,5.87
2018-09-20T03:01:45.886Z,5.17
2018-09-20T03:02:19.415Z,5.80
2018-09-20T03:02:52.855Z,5.93
2018-09-20T03:03:26.181Z,5.80
2018-09-20T03:03:59.532Z,5.03
2018-09-20T03:04:32.856Z,5.97
2018-09-20T03:05:06.400Z,5.27
2018-09-20T03:05:39.750Z,5.40
2018-09-20T03:06:13.253Z,5.20
2018-09-20T03:06:47.017Z,5.00
2018-09-20T03:07:20.367Z,5.50
2018-09-20T03:07:53.722Z,5.77
2018-09-20T03:08:27.190Z,5.47
2018-09-20T03:09:00.689Z,5.20
2018-09-20T03:09:34.121Z,5.20
2018-09-20T03:10:07.531Z,5.43
2018-09-20T03:10:41.011Z,5.13
2018-09-20T03:11:14.422Z,5.07
2018-09-20T03:11:47.940Z,5.13
2018-09-20T03:12:21.368Z,5.23
2018-09-20T03:12:54.703Z,5.03
2018-09-20T03:13:28.198Z,5.70
2018-09-20T03:14:01.615Z,5.87
2018-09-20T03:14:34.974Z,5.10
2018-09-20T03:15:08.559Z,5.73
2018-09-20T03:15:42.013Z,5.43
2018-09-20T03:16:15.472Z,5.67
2018-09-20T03:16:48.891Z,5.37
2018-09-20T03:17:22.247Z,5.90
2018-09-20T03:17:55.615Z,6.07
2018-09-20T03:18:28.921Z,5.40
2018-09-20T03:19:02.697Z,5.50
2018-09-20T03:19:36.103Z,5.80
2018-09-20T03:20:09.560Z,5.42
2018-09-20T03:20:42.917Z,5.20
2018-09-20T03:21:16.326Z,5.08
2018-09-20T03:21:49.937Z,5.50
2018-09-20T03:22:23.468Z,6.25
2018-09-20T03:22:56.787Z,5.83
2018-09-20T03:23:30.114Z,5.60
2018-09-20T03:24:03.591Z,5.03
2018-09-20T03:24:37.059Z,5.53
2018-09-20T03:25:10.538Z,5.30
2018-09-20T03:25:44.104Z,5.83
2018-09-20T03:26:17.563Z,5.80
2018-09-20T03:26:51.039Z,5.60
2018-09-20T03:27:24.447Z,5.43
2018-09-20T03:27:57.925Z,5.80
2018-09-20T03:28:31.310Z,5.37
2018-09-20T03:29:04.673Z,5.50
2018-09-20T03:29:38.036Z,5.83
2018-09-20T03:30:11.367Z,5.60
2018-09-20T03:30:44.834Z,5.50
2018-09-20T03:31:18.233Z,5.17
2018-09-20T03:31:51.603Z,5.23
2018-09-20T03:32:24.963Z,5.37
2018-09-20T03:32:58.409Z,6.17
2018-09-20T03:33:31.825Z,5.40
2018-09-20T03:34:05.459Z,6.33
2018-09-20T03:34:38.855Z,5.60
2018-09-20T03:35:12.280Z,5.70
2018-09-20T03:35:45.718Z,5.50
2018-09-20T03:36:19.090Z,5.40
2018-09-20T03:36:52.496Z,5.03
2018-09-20T03:37:25.861Z,5.67
2018-09-20T03:37:59.201Z,5.53
2018-09-20T03:38:32.681Z,5.73
2018-09-20T03:39:10.225Z,5.83
2018-09-20T03:39:43.672Z,5.57
2018-09-20T03:40:17.396Z,5.93
2018-09-20T03:40:50.830Z,5.33
2018-09-20T03:41:24.268Z,5.60
2018-09-20T03:41:57.631Z,5.40
2018-09-20T03:42:30.971Z,5.67
2018-09-20T03:43:04.381Z,5.37
2018-09-20T03:43:37.696Z,5.20
2018-09-20T03:44:10.982Z,5.80
2018-09-20T03:44:44.305Z,5.33
2018-09-20T03:45:17.637Z,5.57
2018-09-20T03:45:51.099Z,5.80
2018-09-20T03:46:24.468Z,5.37
2018-09-20T03:46:57.892Z,5.60
2018-09-20T03:47:31.231Z,6.03
2018-09-20T03:48:05.045Z,5.40
2018-09-20T03:48:38.351Z,5.13
2018-09-20T03:49:11.712Z,5.87
2018-09-20T03:49:45.081Z,5.27
2018-09-20T03:50:18.459Z,5.53
2018-09-20T03:50:51.816Z,6.30
2018-09-20T03:51:25.166Z,5.33
2018-09-20T03:51:58.784Z,5.43
2018-09-20T03:52:32.129Z,5.80
2018-09-20T03:53:05.583Z,6.33
2018-09-20T03:53:38.894Z,5.97
2018-09-20T03:54:12.675Z,6.00
2018-09-20T03:54:46.047Z,5.87
2018-09-20T03:55:19.450Z,6.07
2018-09-20T03:55:52.861Z,6.37
2018-09-20T03:56:26.299Z,5.70
2018-09-20T03:57:00.080Z,5.83
2018-09-20T03:57:33.665Z,6.40
2018-09-20T03:58:06.998Z,6.17
2018-09-20T03:58:40.443Z,6.30
2018-09-20T03:59:13.793Z,6.53
2018-09-20T03:59:47.129Z,5.83
2018-09-20T04:00:20.611Z,6.03
2018-09-20T04:00:54.128Z,5.97
2018-09-20T04:01:27.477Z,6.40
2018-09-20T04:02:00.912Z,6.37
2018-09-20T04:02:34.265Z,6.23
2018-09-20T04:03:07.632Z,6.23
2018-09-20T04:03:40.980Z,6.13
2018-09-20T04:04:14.465Z,5.30
2018-09-20T04:04:47.845Z,5.30
2018-09-20T04:05:21.205Z,6.57
2018-09-20T04:05:54.606Z,6.00
2018-09-20T04:06:27.987Z,6.10
2018-09-20T04:07:01.484Z,5.40
2018-09-20T04:07:34.920Z,6.40
2018-09-20T04:08:08.338Z,5.33
2018-09-20T04:08:41.721Z,6.03
2018-09-20T04:09:15.040Z,5.47
2018-09-20T04:09:48.483Z,5.13
2018-09-20T04:10:21.746Z,5.67
2018-09-20T04:10:55.121Z,5.93
2018-09-20T04:11:28.520Z,5.90
2018-09-20T04:12:02.057Z,5.93
2018-09-20T04:12:35.497Z,5.27
2018-09-20T04:13:08.864Z,5.90
2018-09-20T04:13:42.256Z,6.23
2018-09-20T04:14:15.648Z,5.43
2018-09-20T04:14:48.980Z,6.10
2018-09-20T04:15:22.335Z,6.00
2018-09-20T04:15:55.747Z,6.30
2018-09-20T04:16:29.090Z,5.80
2018-09-20T04:17:02.466Z,6.47
2018-09-20T04:17:35.858Z,6.13
2018-09-20T04:18:09.193Z,6.77
2018-09-20T04:18:42.595Z,6.40
2018-09-20T04:19:17.131Z,6.40
2018-09-20T04:19:51.474Z,6.80
2018-09-20T04:20:25.639Z,6.83
2018-09-20T04:20:59.100Z,6.50
2018-09-20T04:21:33.652Z,6.40
2018-09-20T04:22:07.050Z,7.30
2018-09-20T04:22:40.428Z,6.57
2018-09-20T04:23:13.837Z,6.57
2018-09-20T04:23:47.148Z,6.13
2018-09-20T04:24:20.738Z,6.23
2018-09-20T04:24:54.160Z,6.33
2018-09-20T04:25:27.605Z,6.77
2018-09-20T04:26:00.954Z,7.70
2018-09-20T04:26:34.421Z,7.70
2018-09-20T04:27:07.797Z,7.70
2018-09-20T04:27:41.174Z,8.37
2018-09-20T04:28:17.332Z,8.10
2018-09-20T04:28:51.293Z,8.07
2018-09-20T04:29:24.754Z,7.97
2018-09-20T04:29:58.206Z,9.20
2018-09-20T04:30:31.684Z,8.90
2018-09-20T04:31:05.217Z,8.57
2018-09-20T04:31:38.717Z,7.80
2018-09-20T04:32:12.031Z,7.27
2018-09-20T04:32:45.434Z,7.63
2018-09-20T04:33:18.806Z,7.57
2018-09-20T04:33:52.153Z,7.15
2018-09-20T04:34:25.611Z,7.43
2018-09-20T04:34:59.267Z,7.57
2018-09-20T04:35:32.644Z,7.53
2018-09-20T04:36:06.090Z,6.67
2018-09-20T04:36:39.513Z,6.63
2018-09-20T04:37:12.926Z,6.13
2018-09-20T04:37:46.383Z,6.53
2018-09-20T04:38:19.788Z,7.50
2018-09-20T04:38:53.426Z,6.63
2018-09-20T04:39:26.936Z,6.87
2018-09-20T04:40:00.381Z,6.70
2018-09-20T04:40:33.862Z,6.70
2018-09-20T04:41:07.295Z,7.13
2018-09-20T04:41:40.824Z,7.33
2018-09-20T04:42:14.408Z,7.20
2018-09-20T04:42:47.820Z,7.13
2018-09-20T04:43:21.406Z,7.00
2018-09-20T04:43:54.877Z,7.92
2018-09-20T04:44:28.391Z,7.77
2018-09-20T04:45:01.865Z,7.00
2018-09-20T04:45:35.737Z,7.17
2018-09-20T04:46:09.273Z,7.03
2018-09-20T04:46:42.690Z,7.60
2018-09-20T04:47:16.113Z,7.33
2018-09-20T04:47:49.521Z,7.30
2018-09-20T04:48:23.143Z,6.97
2018-09-20T04:48:56.721Z,7.07
2018-09-20T04:49:30.251Z,6.73
2018-09-20T04:50:03.846Z,7.10
2018-09-20T04:50:37.270Z,7.00
2018-09-20T04:51:10.897Z,6.67
2018-09-20T04:51:44.427Z,6.33
2018-09-20T04:52:17.881Z,5.97
2018-09-20T04:52:51.249Z,6.17
2018-09-20T04:53:24.678Z,6.30
2018-09-20T04:53:58.144Z,6.97
2018-09-20T04:54:31.722Z,6.17
2018-09-20T04:55:05.959Z,6.10
2018-09-20T04:55:39.440Z,5.83
2018-09-20T04:56:12.985Z,6.03
2018-09-20T04:56:46.388Z,6.13
2018-09-20T04:57:19.816Z,5.87
2018-09-20T04:57:53.205Z,5.70
2018-09-20T04:58:26.573Z,6.10
2018-09-20T04:59:00.226Z,6.50
2018-09-20T04:59:33.881Z,6.53
2018-09-20T05:00:07.662Z,5.70
2018-09-20T05:00:41.292Z,6.23
2018-09-20T05:01:14.728Z,6.00
2018-09-20T05:01:48.181Z,6.53
2018-09-20T05:02:21.560Z,6.23
2018-09-20T05:02:54.895Z,5.83
2018-09-20T05:03:28.400Z,5.90
2018-09-20T05:04:01.908Z,5.57
2018-09-20T05:04:35.239Z,5.73
2018-09-20T05:05:08.775Z,6.00
2018-09-20T05:05:42.209Z,6.07
2018-09-20T05:06:15.631Z,6.17
2018-09-20T05:06:48.996Z,5.93
2018-09-20T05:07:22.337Z,6.00
2018-09-20T05:07:55.672Z,5.70
2018-09-20T05:08:29.244Z,6.13
2018-09-20T05:09:04.252Z,6.00
2018-09-20T05:09:37.909Z,5.63
2018-09-20T05:10:11.254Z,5.70
2018-09-20T05:11:18.500Z,5.83
2018-09-20T05:11:52.037Z,6.10
2018-09-20T05:12:25.590Z,6.07
2018-09-20T05:12:59.001Z,6.00
2018-09-20T05:13:32.500Z,6.13
2018-09-20T05:14:05.977Z,6.47
2018-09-20T05:14:39.330Z,6.07
2018-09-20T05:15:12.845Z,5.93
2018-09-20T05:15:46.208Z,5.93
2018-09-20T05:16:19.749Z,6.30
2018-09-20T05:16:53.232Z,6.60
2018-09-20T05:17:27.017Z,6.10
2018-09-20T05:18:00.610Z,6.40
2018-09-20T05:18:34.075Z,6.27
2018-09-20T05:19:07.479Z,5.70
2018-09-20T05:19:40.916Z,6.40
2018-09-20T05:20:14.410Z,5.97
2018-09-20T05:20:47.830Z,5.87
2018-09-20T05:21:21.348Z,5.83
2018-09-20T05:21:54.820Z,5.80
2018-09-20T05:22:28.560Z,5.73
2018-09-20T05:23:02.405Z,6.67
2018-09-20T05:23:35.828Z,6.47
2018-09-20T05:24:09.414Z,6.37
2018-09-20T05:24:42.877Z,6.03
2018-09-20T05:25:16.361Z,6.40
2018-09-20T05:25:49.985Z,5.87
2018-09-20T05:26:23.413Z,5.93
2018-09-20T05:26:56.725Z,6.17
2018-09-20T05:27:30.502Z,5.97
2018-09-20T05:28:03.904Z,6.70
2018-09-20T05:28:37.285Z,6.23
2018-09-20T05:29:10.647Z,5.93
2018-09-20T05:29:44.191Z,5.83
2018-09-20T05:30:17.586Z,5.97
2018-09-20T05:30:51.309Z,6.40
2018-09-20T05:31:24.672Z,6.10
2018-09-20T05:31:58.113Z,5.73
2018-09-20T05:32:31.572Z,6.00
2018-09-20T05:33:05.152Z,5.57
2018-09-20T05:33:38.632Z,5.47
2018-09-20T05:34:12.048Z,5.77
2018-09-20T05:34:45.576Z,6.23
2018-09-20T05:35:19.120Z,6.27
2018-09-20T05:35:52.545Z,5.70
2018-09-20T05:36:26.040Z,5.23
2018-09-20T05:36:59.781Z,5.37
2018-09-20T05:37:33.202Z,5.83
2018-09-20T05:38:06.518Z,5.60
2018-09-20T05:38:39.947Z,6.00
2018-09-20T05:39:13.329Z,5.77
2018-09-20T05:39:46.877Z,5.70
2018-09-20T05:40:20.737Z,5.67
2018-09-20T05:40:54.099Z,5.50
2018-09-20T05:41:27.486Z,5.80
2018-09-20T05:42:00.934Z,5.50
2018-09-20T05:42:34.357Z,6.03
2018-09-20T05:43:07.730Z,5.67
2018-09-20T05:43:41.317Z,6.67
2018-09-20T05:44:14.860Z,5.97
2018-09-20T05:44:48.364Z,6.67
2018-09-20T05:45:21.892Z,6.07
2018-09-20T05:45:55.644Z,5.70
2018-09-20T05:46:36.005Z,6.17
2018-09-20T05:47:09.471Z,5.90
2018-09-20T05:47:42.963Z,5.73
2018-09-20T05:48:16.724Z,6.43
2018-09-20T05:48:50.246Z,6.53
2018-09-20T05:49:24.068Z,6.60
2018-09-20T05:49:57.792Z,5.70
2018-09-20T05:50:31.241Z,6.17
2018-09-20T05:51:04.892Z,5.57
2018-09-20T05:51:38.732Z,6.00
2018-09-20T05:52:12.780Z,5.70
2018-09-20T05:52:46.422Z,5.70
2018-09-20T05:53:20.034Z,5.93
2018-09-20T05:53:53.436Z,6.20
2018-09-20T05:54:26.986Z,5.90
2018-09-20T05:55:00.691Z,6.00
2018-09-20T05:55:34.252Z,5.77
2018-09-20T05:56:07.615Z,5.70
2018-09-20T05:56:41.045Z,5.73
2018-09-20T05:57:14.503Z,6.00
2018-09-20T05:57:48.062Z,5.33
2018-09-20T05:58:21.511Z,5.93
2018-09-20T05:58:55.182Z,6.40
2018-09-20T05:59:28.686Z,5.80
2018-09-20T06:00:02.165Z,6.10
2018-09-20T06:00:35.741Z,5.90
2018-09-20T06:01:09.241Z,5.67
2018-09-20T06:01:42.688Z,5.87
2018-09-20T06:02:16.032Z,6.23
2018-09-20T06:02:49.400Z,5.70
2018-09-20T06:03:22.996Z,6.03
2018-09-20T06:03:56.541Z,5.17
2018-09-20T06:04:30.003Z,6.03
2018-09-20T06:05:04.021Z,5.90
2018-09-20T06:05:37.518Z,6.57
2018-09-20T06:06:11.136Z,6.13
2018-09-20T06:06:44.794Z,5.57
2018-09-20T06:07:18.245Z,5.57
2018-09-20T06:07:51.624Z,6.13
2018-09-20T06:08:25.064Z,5.67
2018-09-20T06:08:58.717Z,6.00
2018-09-20T06:09:32.235Z,5.97
2018-09-20T06:10:06.142Z,5.80
2018-09-20T06:10:39.765Z,5.87
2018-09-20T06:11:13.359Z,5.70
2018-09-20T06:11:47.109Z,5.73
2018-09-20T06:12:20.735Z,5.83
2018-09-20T06:12:54.521Z,5.70
2018-09-20T06:13:28.109Z,5.83
2018-09-20T06:14:01.736Z,5.57
2018-09-20T06:14:35.265Z,6.30
2018-09-20T06:15:08.915Z,6.10
2018-09-20T06:15:42.481Z,5.93
2018-09-20T06:16:16.205Z,5.83
2018-09-20T06:16:49.728Z,5.73
2018-09-20T06:17:23.531Z,6.20
2018-09-20T06:17:57.301Z,6.07
2018-09-20T06:18:30.782Z,5.47
2018-09-20T06:19:04.765Z,6.33
2018-09-20T06:19:38.451Z,5.93
2018-09-20T06:20:12.081Z,5.47
2018-09-20T06:20:45.766Z,5.23
2018-09-20T06:21:19.463Z,5.47
2018-09-20T06:21:53.200Z,5.33
2018-09-20T06:22:26.637Z,5.87
2018-09-20T06:23:00.924Z,5.20
2018-09-20T06:23:34.934Z,5.77
2018-09-20T06:24:08.490Z,5.80
2018-09-20T06:24:42.400Z,6.40
2018-09-20T06:25:16.013Z,5.67
2018-09-20T06:25:49.687Z,5.40
2018-09-20T06:26:23.356Z,5.60
2018-09-20T06:26:56.815Z,5.90
2018-09-20T06:27:30.531Z,5.50
2018-09-20T06:28:04.149Z,6.10
2018-09-20T06:28:38.145Z,6.33
2018-09-20T06:29:11.645Z,6.13
2018-09-20T06:29:45.116Z,6.00
2018-09-20T06:30:18.468Z,6.27
2018-09-20T06:30:52.144Z,5.90
2018-09-20T06:31:25.652Z,5.50
2018-09-20T06:31:59.171Z,5.60
2018-09-20T06:32:33.115Z,5.87
2018-09-20T06:33:06.738Z,5.43
2018-09-20T06:33:40.310Z,5.83
2018-09-20T06:34:13.967Z,5.30
2018-09-20T06:34:47.725Z,5.58
2018-09-20T06:35:22.050Z,5.40
2018-09-20T06:35:55.591Z,5.70
2018-09-20T06:36:28.944Z,5.63
2018-09-20T06:37:02.734Z,5.43
2018-09-20T06:37:36.406Z,5.43
2018-09-20T06:38:09.861Z,5.57
2018-09-20T06:38:43.241Z,6.23
2018-09-20T06:39:16.606Z,5.37
2018-09-20T06:39:50.158Z,6.13
2018-09-20T06:40:23.805Z,5.35
2018-09-20T06:40:57.402Z,5.77
2018-09-20T06:41:30.716Z,5.37
2018-09-20T06:42:04.502Z,5.37
2018-09-20T06:42:38.012Z,4.87
2018-09-20T06:43:11.581Z,5.90
2018-09-20T06:43:45.322Z,5.80
2018-09-20T06:44:18.828Z,5.83
2018-09-20T06:44:52.558Z,5.27
2018-09-20T06:45:26.241Z,5.50
2018-09-20T06:45:59.926Z,5.57
2018-09-20T06:46:33.652Z,5.57
2018-09-20T06:47:08.126Z,5.50
2018-09-20T06:47:41.697Z,5.40
2018-09-20T06:48:15.988Z,5.43
2018-09-20T06:48:49.353Z,5.73
2018-09-20T06:49:22.809Z,5.17
2018-09-20T06:49:56.313Z,5.13
2018-09-20T06:50:30.234Z,5.37
2018-09-20T06:51:03.877Z,5.17
2018-09-20T06:51:37.365Z,5.97
2018-09-20T06:52:10.851Z,5.77
2018-09-20T06:52:44.323Z,5.60
2018-09-20T06:53:17.839Z,6.17
2018-09-20T06:53:51.176Z,5.47
2018-09-20T06:54:24.500Z,4.87
2018-09-20T06:54:57.860Z,5.93
2018-09-20T06:55:31.238Z,5.23
2018-09-20T06:56:04.785Z,5.47
2018-09-20T06:56:38.203Z,5.50
2018-09-20T06:57:11.510Z,5.42
2018-09-20T06:57:45.163Z,6.03
2018-09-20T06:58:18.680Z,5.47
2018-09-20T06:58:52.152Z,5.67
2018-09-20T06:59:25.771Z,5.75
2018-09-20T06:59:59.256Z,5.67
2018-09-20T07:00:32.861Z,5.50
2018-09-20T07:01:06.475Z,5.27
2018-09-20T07:01:39.851Z,5.33
2018-09-20T07:02:13.671Z,5.83
2018-09-20T07:02:47.129Z,5.75
2018-09-20T07:03:20.807Z,5.07
2018-09-20T07:03:54.255Z,5.80
2018-09-20T07:04:27.833Z,5.53
2018-09-20T07:05:01.849Z,5.83
2018-09-20T07:05:35.398Z,5.25
2018-09-20T07:06:08.953Z,4.70
2018-09-20T07:06:42.365Z,5.35
2018-09-20T07:07:15.834Z,5.53
2018-09-20T07:07:49.231Z,4.97
2018-09-20T07:08:23.186Z,5.67
2018-09-20T07:08:56.752Z,5.35
2018-09-20T07:09:30.295Z,5.37
2018-09-20T07:10:03.794Z,5.37
2018-09-20T07:10:37.302Z,5.20
2018-09-20T07:11:10.771Z,5.87
2018-09-20T07:11:44.240Z,5.78
2018-09-20T07:12:17.783Z,5.90
2018-09-20T07:12:51.289Z,5.70
2018-09-20T07:13:25.091Z,5.10
2018-09-20T07:13:58.529Z,5.43
2018-09-20T07:14:31.880Z,5.13
2018-09-20T07:15:05.720Z,5.47
2018-09-20T07:15:39.125Z,5.37
2018-09-20T07:16:12.540Z,5.23
2018-09-20T07:16:46.025Z,5.50
2018-09-20T07:17:19.401Z,5.30
2018-09-20T07:17:53.580Z,4.95
2018-09-20T07:18:26.954Z,5.30
2018-09-20T07:19:00.829Z,5.80
2018-09-20T07:19:34.220Z,5.60
2018-09-20T07:20:08.241Z,5.95
2018-09-20T07:20:41.692Z,5.22
2018-09-20T07:21:15.232Z,5.37
2018-09-20T07:21:48.632Z,5.40
2018-09-20T07:22:22.052Z,6.07
2018-09-20T07:22:55.568Z,4.87
2018-09-20T07:23:28.883Z,4.87
2018-09-20T07:24:02.534Z,5.25
2018-09-20T07:24:35.909Z,4.78
2018-09-20T07:25:09.323Z,5.03
2018-09-20T07:25:42.715Z,5.40
2018-09-20T07:26:16.108Z,5.27
2018-09-20T07:26:49.509Z,4.97